createdAt,value
2017-12-11T00:01:03.969Z,9.02
2017-12-11T00:03:32.120Z,9.73
2017-12-11T00:06:00.247Z,9.70
2017-12-11T00:08:28.401Z,8.48
2017-12-11T00:10:56.545Z,9.57
2017-12-11T00:13:24.698Z,9.50
2017-12-11T00:15:52.825Z,8.52
2017-12-11T00:18:20.996Z,10.10
2017-12-11T00:20:49.120Z,9.75
2017-12-11T00:23:17.274Z,10.85
2017-12-11T00:25:45.404Z,8.80
2017-12-11T00:28:13.593Z,9.68
2017-12-11T00:30:41.710Z,11.82
2017-12-11T00:33:09.877Z,12.23
2017-12-11T00:35:38.011Z,10.23
2017-12-11T00:38:06.166Z,11.80
2017-12-11T00:40:34.294Z,10.55
2017-12-11T00:43:02.446Z,9.93
2017-12-11T00:45:30.569Z,9.15
2017-12-11T00:47:58.722Z,9.23
2017-12-11T00:50:26.841Z,9.98
2017-12-11T00:52:54.994Z,10.90
2017-12-11T00:55:23.112Z,10.77
2017-12-11T00:57:51.263Z,8.80
2017-12-11T01:00:19.386Z,9.32
2017-12-11T01:02:47.537Z,11.70
2017-12-11T01:05:15.670Z,13.38
2017-12-11T01:07:43.817Z,11.63
2017-12-11T01:10:11.942Z,10.27
2017-12-11T01:12:40.097Z,9.20
2017-12-11T01:15:08.219Z,10.75
2017-12-11T01:17:36.341Z,9.00
2017-12-11T01:20:04.484Z,9.25
2017-12-11T01:22:32.609Z,11.30
2017-12-11T01:25:00.766Z,10.63
2017-12-11T01:27:28.889Z,12.52
2017-12-11T01:29:57.048Z,10.90
2017-12-11T01:32:25.169Z,10.85
2017-12-11T01:34:54.082Z,9.82
2017-12-11T01:37:22.197Z,9.70
2017-12-11T01:39:50.348Z,9.02
2017-12-11T01:42:18.473Z,11.27
2017-12-11T01:44:46.631Z,10.88
2017-12-11T01:47:14.760Z,9.23
2017-12-11T01:49:42.930Z,9.35
2017-12-11T01:52:11.045Z,9.82
2017-12-11T01:54:39.192Z,11.88
2017-12-11T01:57:07.320Z,10.77
2017-12-11T01:59:35.457Z,9.70
2017-12-11T02:02:03.590Z,11.15
2017-12-11T02:04:31.741Z,11.57
2017-12-11T02:06:59.879Z,11.15
2017-12-11T02:09:28.037Z,11.38
2017-12-11T02:11:56.157Z,10.75
2017-12-11T02:14:25.078Z,10.95
2017-12-11T02:16:53.201Z,11.50
2017-12-11T02:19:21.361Z,10.98
2017-12-11T02:21:49.478Z,9.70
2017-12-11T02:24:17.624Z,11.30
2017-12-11T02:26:45.745Z,10.90
2017-12-11T02:29:13.901Z,10.48
2017-12-11T02:31:42.029Z,10.65
2017-12-11T02:34:10.180Z,11.38
2017-12-11T02:36:38.310Z,11.48
2017-12-11T02:39:06.462Z,12.95
2017-12-11T02:41:34.590Z,11.93
2017-12-11T02:44:02.749Z,13.85
2017-12-11T02:46:30.876Z,12.77
2017-12-11T02:48:59.014Z,13.15
2017-12-11T02:51:27.160Z,10.70
2017-12-11T02:53:55.285Z,13.18
2017-12-11T02:56:23.449Z,12.70
2017-12-11T02:58:51.574Z,13.02
2017-12-11T03:01:19.728Z,12.80
2017-12-11T03:03:48.631Z,12.50
2017-12-11T03:06:16.787Z,13.10
2017-12-11T03:08:44.909Z,13.85
2017-12-11T03:11:13.065Z,13.00
2017-12-11T03:13:41.191Z,13.38
2017-12-11T03:16:09.351Z,12.40
2017-12-11T03:18:37.487Z,19.45
2017-12-11T03:21:05.642Z,15.60
2017-12-11T03:23:33.775Z,14.73
2017-12-11T03:26:01.928Z,15.10
2017-12-11T03:28:30.057Z,14.18
2017-12-11T03:30:58.977Z,16.92
2017-12-11T03:33:27.101Z,13.68
2017-12-11T03:35:55.262Z,14.38
2017-12-11T03:38:23.397Z,14.13
2017-12-11T03:40:51.557Z,13.68
2017-12-11T03:43:19.691Z,13.10
2017-12-11T03:45:47.860Z,14.00
2017-12-11T03:48:15.988Z,14.80
2017-12-11T03:50:44.118Z,17.65
2017-12-11T03:53:12.273Z,14.00
2017-12-11T03:55:40.401Z,14.98
2017-12-11T03:58:08.552Z,12.88
2017-12-11T04:00:36.682Z,13.40
2017-12-11T04:03:04.841Z,14.93
2017-12-11T04:05:32.968Z,14.15
2017-12-11T04:08:01.905Z,14.77
2017-12-11T04:10:30.034Z,15.35
2017-12-11T04:12:58.950Z,16.00
2017-12-11T04:15:27.124Z,12.75
2017-12-11T04:17:56.023Z,18.17
2017-12-11T04:20:24.145Z,14.40
2017-12-11T04:22:52.300Z,14.90
2017-12-11T04:25:20.429Z,15.60
2017-12-11T04:27:48.582Z,14.50
2017-12-11T04:30:16.709Z,18.02
2017-12-11T04:32:44.860Z,15.10
2017-12-11T04:35:12.989Z,16.08
2017-12-11T04:37:41.149Z,18.23
2017-12-11T04:40:09.273Z,14.23
2017-12-11T04:42:37.423Z,14.32
2017-12-11T04:45:06.319Z,15.20
2017-12-11T04:47:34.469Z,14.63
2017-12-11T04:50:02.601Z,18.87
2017-12-11T04:52:30.758Z,15.05
2017-12-11T04:54:58.889Z,14.80
2017-12-11T04:57:27.051Z,15.55
2017-12-11T04:59:55.180Z,15.52
2017-12-11T05:02:23.309Z,14.95
2017-12-11T05:04:51.469Z,15.25
2017-12-11T05:07:19.617Z,20.80
2017-12-11T05:09:47.764Z,15.75
2017-12-11T05:12:15.889Z,17.58
2017-12-11T05:14:44.050Z,18.12
2017-12-11T05:17:12.186Z,16.10
2017-12-11T05:19:40.342Z,16.33
2017-12-11T05:22:09.239Z,16.98
2017-12-11T05:24:37.397Z,19.33
2017-12-11T05:27:06.302Z,18.10
2017-12-11T05:29:34.449Z,19.73
2017-12-11T05:32:02.580Z,16.40
2017-12-11T05:34:30.734Z,17.77
2017-12-11T05:36:58.861Z,19.85
2017-12-11T05:39:27.018Z,18.45
2017-12-11T05:41:55.148Z,15.52
2017-12-11T05:44:23.304Z,18.10
2017-12-11T05:46:51.444Z,17.75
2017-12-11T05:49:19.660Z,15.85
2017-12-11T05:51:47.744Z,21.40
2017-12-11T05:54:15.897Z,23.65
2017-12-11T05:56:44.034Z,34.83
2017-12-11T05:59:12.188Z,28.48
2017-12-11T06:01:40.310Z,33.00
2017-12-11T06:04:08.465Z,29.92
2017-12-11T06:06:36.594Z,22.67
2017-12-11T06:09:04.766Z,19.40
2017-12-11T06:11:32.896Z,21.23
2017-12-11T06:14:01.029Z,20.15
2017-12-11T06:16:29.190Z,21.25
2017-12-11T06:18:57.313Z,22.42
2017-12-11T06:21:25.473Z,21.65
2017-12-11T06:23:53.603Z,31.20
2017-12-11T06:26:21.764Z,40.75
2017-12-11T06:28:49.893Z,27.33
2017-12-11T06:31:18.045Z,22.75
2017-12-11T06:33:46.173Z,24.45
2017-12-11T06:36:15.092Z,24.55
2017-12-11T06:38:43.229Z,30.20
2017-12-11T06:41:11.381Z,24.27
2017-12-11T06:43:39.510Z,22.42
2017-12-11T06:46:07.669Z,22.55
2017-12-11T06:48:35.790Z,21.37
2017-12-11T06:51:03.950Z,22.62
2017-12-11T06:53:32.073Z,26.40
2017-12-11T06:56:00.235Z,26.60
2017-12-11T06:58:31.332Z,24.50
2017-12-11T07:00:59.498Z,23.67
2017-12-11T07:03:27.624Z,23.52
2017-12-11T07:05:55.781Z,27.13
2017-12-11T07:08:23.908Z,25.00
2017-12-11T07:10:52.069Z,29.92
2017-12-11T07:13:20.192Z,26.20
2017-12-11T07:15:48.370Z,25.40
2017-12-11T07:18:16.495Z,23.85
2017-12-11T07:20:44.662Z,26.35
2017-12-11T07:23:12.810Z,29.37
2017-12-11T07:25:40.970Z,25.70
2017-12-11T07:28:09.104Z,27.02
2017-12-11T07:30:37.226Z,47.75
2017-12-11T07:33:05.381Z,26.73
2017-12-11T07:35:33.513Z,41.35
2017-12-11T07:38:01.677Z,28.60
2017-12-11T07:40:29.805Z,28.73
2017-12-11T07:42:57.976Z,29.87
2017-12-11T07:45:26.114Z,25.77
2017-12-11T07:47:54.270Z,29.00
2017-12-11T07:50:22.409Z,24.30
2017-12-11T07:52:57.510Z,27.85
2017-12-11T07:55:25.657Z,23.23
2017-12-11T07:57:53.817Z,24.25
2017-12-11T08:00:22.713Z,23.55
2017-12-11T08:02:50.864Z,24.42
2017-12-11T08:05:19.004Z,22.05
2017-12-11T08:07:47.156Z,27.05
2017-12-11T08:10:15.281Z,25.02
2017-12-11T08:12:43.441Z,24.52
2017-12-11T08:15:11.574Z,24.37
2017-12-11T08:17:39.707Z,24.23
2017-12-11T08:20:07.861Z,29.95
2017-12-11T08:22:35.993Z,27.87
2017-12-11T08:25:04.150Z,30.60
2017-12-11T08:27:32.285Z,29.75
2017-12-11T08:30:00.437Z,27.45
2017-12-11T08:32:28.574Z,29.40
2017-12-11T08:34:56.725Z,24.87
2017-12-11T08:37:25.629Z,23.77
2017-12-11T08:39:53.786Z,25.83
2017-12-11T08:42:21.913Z,25.20
2017-12-11T08:44:50.068Z,29.63
2017-12-11T08:47:18.200Z,29.77
2017-12-11T08:49:46.361Z,23.75
2017-12-11T08:52:14.488Z,24.00
2017-12-11T08:54:42.641Z,25.10
2017-12-11T08:57:10.769Z,28.65
2017-12-11T08:59:38.937Z,27.27
2017-12-11T09:02:07.073Z,25.23
2017-12-11T09:04:35.237Z,29.00
2017-12-11T09:07:04.151Z,23.42
2017-12-11T09:09:32.290Z,26.23
2017-12-11T09:12:00.450Z,21.90
2017-12-11T09:14:28.576Z,26.10
2017-12-11T09:16:56.762Z,26.33
2017-12-11T09:19:24.889Z,25.00
2017-12-11T09:21:53.051Z,24.85
2017-12-11T09:24:21.176Z,25.37
2017-12-11T09:26:49.332Z,29.45
2017-12-11T09:29:17.509Z,23.98
2017-12-11T09:31:45.637Z,19.95
2017-12-11T09:34:13.772Z,21.95
2017-12-11T09:36:41.929Z,22.15
2017-12-11T09:39:10.065Z,19.25
2017-12-11T09:41:38.229Z,23.33
2017-12-11T09:44:06.377Z,23.10
2017-12-11T09:46:34.527Z,23.27
2017-12-11T09:49:02.657Z,24.10
2017-12-11T09:51:30.810Z,22.15
2017-12-11T09:53:58.941Z,22.67
2017-12-11T09:56:27.134Z,24.83
2017-12-11T09:58:55.261Z,23.95
2017-12-11T10:01:23.388Z,21.20
2017-12-11T10:03:51.544Z,22.83
2017-12-11T10:06:19.670Z,21.05
2017-12-11T10:08:47.829Z,21.23
2017-12-11T10:11:15.954Z,23.02
2017-12-11T10:13:44.109Z,23.60
2017-12-11T10:16:12.232Z,24.02
2017-12-11T10:18:40.386Z,21.23
2017-12-11T10:21:08.525Z,19.15
2017-12-11T10:23:37.446Z,21.95
2017-12-11T10:26:05.568Z,18.05
2017-12-11T10:28:33.722Z,22.87
2017-12-11T10:31:01.851Z,18.75
2017-12-11T10:33:30.004Z,20.75
2017-12-11T10:35:58.920Z,19.92
2017-12-11T10:38:27.094Z,23.70
2017-12-11T10:40:55.276Z,23.15
2017-12-11T10:43:23.427Z,21.08
2017-12-11T10:45:51.574Z,20.92
2017-12-11T10:48:19.744Z,20.37
2017-12-11T10:50:47.898Z,19.33
2017-12-11T10:53:16.353Z,20.75
2017-12-11T10:55:44.484Z,18.25
2017-12-11T10:58:13.391Z,21.30
2017-12-11T11:00:41.551Z,18.00
2017-12-11T11:03:10.450Z,20.92
2017-12-11T11:05:38.632Z,22.00
2017-12-11T11:08:06.764Z,18.52
2017-12-11T11:10:34.930Z,20.25
2017-12-11T11:13:03.057Z,18.33
2017-12-11T11:15:31.209Z,19.10
2017-12-11T11:18:00.142Z,19.87
2017-12-11T11:20:28.596Z,17.45
2017-12-11T11:22:57.490Z,19.15
2017-12-11T11:25:25.641Z,18.65
2017-12-11T11:27:54.541Z,23.62
2017-12-11T11:30:22.701Z,21.02
2017-12-11T11:32:50.832Z,19.85
2017-12-11T11:35:18.989Z,23.40
2017-12-11T11:37:47.126Z,19.10
2017-12-11T11:40:15.277Z,23.50
2017-12-11T11:42:43.410Z,18.83
2017-12-11T11:45:11.568Z,21.80
2017-12-11T11:47:39.692Z,22.30
2017-12-11T11:50:07.874Z,21.55
2017-12-11T11:52:36.011Z,20.62
2017-12-11T11:55:04.149Z,19.30
2017-12-11T11:57:32.302Z,20.67
2017-12-11T12:00:00.426Z,20.50
2017-12-11T12:02:28.581Z,18.90
2017-12-11T12:04:56.709Z,19.45
2017-12-11T12:07:24.868Z,18.00
2017-12-11T12:09:52.995Z,18.35
2017-12-11T12:12:21.159Z,18.90
2017-12-11T12:14:50.054Z,15.93
2017-12-11T12:17:18.210Z,12.60
2017-12-11T12:19:46.333Z,15.48
2017-12-11T12:22:14.486Z,18.83
2017-12-11T12:24:42.619Z,17.17
2017-12-11T12:27:10.783Z,15.57
2017-12-11T12:29:38.905Z,16.95
2017-12-11T12:32:07.070Z,15.48
2017-12-11T12:34:35.193Z,15.43
2017-12-11T12:37:03.349Z,15.52
2017-12-11T12:39:31.472Z,15.43
2017-12-11T12:42:00.400Z,16.70
2017-12-11T12:44:28.533Z,15.75
2017-12-11T12:46:56.664Z,14.77
2017-12-11T12:49:24.822Z,13.82
2017-12-11T12:51:52.944Z,14.10
2017-12-11T12:54:21.110Z,15.80
2017-12-11T12:56:49.239Z,16.80
2017-12-11T12:59:17.586Z,13.40
2017-12-11T13:01:46.473Z,15.13
2017-12-11T13:04:14.628Z,14.30
2017-12-11T13:06:42.757Z,14.27
2017-12-11T13:09:11.117Z,14.98
2017-12-11T13:11:40.011Z,16.17
2017-12-11T13:14:08.162Z,14.43
2017-12-11T13:16:37.066Z,13.95
2017-12-11T13:19:05.221Z,14.43
2017-12-11T13:21:33.823Z,13.23
2017-12-11T13:24:01.992Z,14.60
2017-12-11T13:26:30.889Z,13.85
2017-12-11T13:28:59.058Z,15.27
2017-12-11T13:31:28.061Z,14.13
2017-12-11T13:33:56.973Z,17.73
2017-12-11T13:36:25.102Z,12.73
2017-12-11T13:38:53.256Z,17.15
2017-12-11T13:41:21.388Z,13.62
2017-12-11T13:43:49.549Z,13.73
2017-12-11T13:46:17.676Z,14.38
2017-12-11T13:48:45.837Z,14.93
2017-12-11T13:51:14.171Z,15.35
2017-12-11T13:53:43.085Z,14.32
2017-12-11T13:56:11.221Z,18.52
2017-12-11T13:58:40.143Z,18.20
2017-12-11T14:01:08.279Z,16.12
2017-12-11T14:03:36.437Z,14.00
2017-12-11T14:06:04.577Z,15.48
2017-12-11T14:08:32.769Z,16.25
2017-12-11T14:11:00.915Z,15.63
2017-12-11T14:13:29.099Z,16.08
2017-12-11T14:15:57.225Z,15.35
2017-12-11T14:18:25.384Z,18.85
2017-12-11T14:20:53.521Z,16.58
2017-12-11T14:23:21.672Z,16.98
2017-12-11T14:25:49.805Z,17.48
2017-12-11T14:28:17.956Z,20.42
2017-12-11T14:30:46.106Z,18.70
2017-12-11T14:33:14.261Z,18.12
2017-12-11T14:35:42.418Z,27.85
2017-12-11T14:38:10.565Z,34.22
2017-12-11T14:40:38.718Z,22.87
2017-12-11T14:43:06.854Z,23.90
2017-12-11T14:45:35.028Z,21.55
2017-12-11T14:48:03.178Z,20.92
2017-12-11T14:50:32.095Z,19.42
2017-12-11T14:53:00.221Z,20.80
2017-12-11T14:55:28.373Z,16.08
2017-12-11T14:57:56.512Z,20.70
2017-12-11T15:00:24.676Z,17.40
2017-12-11T15:02:52.807Z,22.45
2017-12-11T15:05:20.957Z,20.98
2017-12-11T15:07:49.166Z,18.90
2017-12-11T15:10:17.325Z,22.30
2017-12-11T15:12:45.459Z,17.95
2017-12-11T15:15:14.727Z,23.85
2017-12-11T15:17:43.639Z,24.90
2017-12-11T15:20:11.810Z,20.00
2017-12-11T15:22:39.996Z,23.05
2017-12-11T15:25:08.162Z,25.20
2017-12-11T15:27:36.324Z,24.30
2017-12-11T15:30:05.343Z,24.42
2017-12-11T15:32:33.537Z,23.83
2017-12-11T15:35:01.804Z,29.50
2017-12-11T15:37:30.114Z,24.25
2017-12-11T15:39:58.267Z,29.15
2017-12-11T15:42:26.421Z,28.80
2017-12-11T15:44:54.554Z,27.45
2017-12-11T15:47:22.711Z,22.60
2017-12-11T15:49:50.841Z,28.12
2017-12-11T15:52:19.001Z,28.17
2017-12-11T15:54:47.120Z,29.58
2017-12-11T15:57:15.363Z,30.95
2017-12-11T15:59:43.497Z,32.58
2017-12-11T16:02:12.430Z,27.95
2017-12-11T16:04:40.562Z,33.22
2017-12-11T16:07:08.722Z,34.30
2017-12-11T16:09:36.868Z,30.33
2017-12-11T16:12:05.221Z,33.42
2017-12-11T16:14:33.346Z,32.08
2017-12-11T16:17:01.510Z,33.80
2017-12-11T16:19:29.639Z,39.17
2017-12-11T16:21:57.845Z,33.40
2017-12-11T16:24:25.937Z,33.88
2017-12-11T16:26:54.155Z,35.67
2017-12-11T16:29:22.299Z,37.92
2017-12-11T16:31:50.456Z,41.13
2017-12-11T16:34:18.592Z,38.70
2017-12-11T16:36:46.760Z,42.25
2017-12-11T16:39:14.932Z,38.35
2017-12-11T16:41:43.107Z,40.50
2017-12-11T16:44:11.249Z,39.53
2017-12-11T16:46:39.604Z,43.10
2017-12-11T16:49:07.760Z,39.75
2017-12-11T16:51:36.020Z,42.67
2017-12-11T16:54:04.184Z,48.15
2017-12-11T16:56:32.513Z,42.17
2017-12-11T16:59:01.040Z,43.15
2017-12-11T17:01:29.171Z,44.75
2017-12-11T17:03:57.339Z,42.35
2017-12-11T17:06:25.489Z,44.33
2017-12-11T17:08:53.637Z,41.33
2017-12-11T17:11:21.793Z,41.72
2017-12-11T17:13:49.962Z,43.97
2017-12-11T17:16:18.105Z,44.42
2017-12-11T17:18:46.351Z,41.28
2017-12-11T17:21:14.546Z,40.60
2017-12-11T17:23:42.741Z,44.97
2017-12-11T17:26:10.868Z,38.50
2017-12-11T17:28:39.033Z,45.47
2017-12-11T17:31:07.166Z,39.25
2017-12-11T17:33:35.333Z,40.72
2017-12-11T17:36:03.649Z,42.97
2017-12-11T17:38:32.234Z,44.40
2017-12-11T17:41:00.782Z,36.40
2017-12-11T17:43:30.390Z,35.67
2017-12-11T17:45:58.556Z,38.13
2017-12-11T17:48:26.719Z,34.97
2017-12-11T17:50:54.901Z,32.47
2017-12-11T17:53:23.110Z,36.33
2017-12-11T17:55:51.443Z,30.67
2017-12-11T17:58:19.755Z,33.10
2017-12-11T18:00:48.801Z,30.50
2017-12-11T18:03:17.128Z,33.65
2017-12-11T18:05:46.121Z,28.77
2017-12-11T18:08:15.049Z,33.78
2017-12-11T18:10:43.189Z,33.92
2017-12-11T18:13:12.106Z,36.20
2017-12-11T18:15:40.280Z,33.75
2017-12-11T18:18:08.596Z,38.30
2017-12-11T18:20:36.753Z,33.55
2017-12-11T18:23:05.166Z,34.58
2017-12-11T18:25:33.854Z,31.65
2017-12-11T18:28:02.146Z,33.13
2017-12-11T18:30:31.927Z,27.40
2017-12-11T18:33:00.545Z,31.85
2017-12-11T18:35:29.364Z,25.48
2017-12-11T18:37:58.106Z,33.85
2017-12-11T18:40:28.204Z,34.80
2017-12-11T18:42:58.177Z,38.92
2017-12-11T18:45:27.511Z,33.83
2017-12-11T18:47:56.191Z,32.70
2017-12-11T18:50:24.921Z,34.22
2017-12-11T18:52:53.586Z,32.85
2017-12-11T18:55:23.541Z,36.50
2017-12-11T18:57:51.804Z,31.90
2017-12-11T19:00:22.473Z,34.90
2017-12-11T19:02:50.682Z,33.97
2017-12-11T19:05:19.035Z,31.12
2017-12-11T19:07:47.302Z,34.33
2017-12-11T19:10:15.482Z,33.97
2017-12-11T19:12:43.636Z,34.08
2017-12-11T19:15:11.822Z,32.22
2017-12-11T19:17:40.242Z,29.05
2017-12-11T19:20:08.447Z,28.50
2017-12-11T19:22:36.665Z,31.12
2017-12-11T19:25:05.007Z,27.45
2017-12-11T19:27:33.401Z,24.42
2017-12-11T19:30:01.626Z,29.27
2017-12-11T19:32:29.892Z,27.17
2017-12-11T19:34:58.098Z,30.23
2017-12-11T19:37:26.327Z,32.17
2017-12-11T19:39:54.858Z,31.65
2017-12-11T19:42:23.216Z,30.65
2017-12-11T19:44:51.570Z,30.75
2017-12-11T19:47:19.846Z,31.58
2017-12-11T19:49:48.135Z,31.05
2017-12-11T19:52:17.459Z,29.33
2017-12-11T19:54:46.476Z,29.58
2017-12-11T19:57:14.668Z,33.20
2017-12-11T19:59:42.911Z,30.92
2017-12-11T20:02:11.929Z,34.75
2017-12-11T20:04:40.135Z,36.53
2017-12-11T20:07:08.328Z,35.17
2017-12-11T20:09:36.484Z,31.02
2017-12-11T20:12:04.670Z,37.60
2017-12-11T20:14:33.344Z,36.10
2017-12-11T20:17:03.084Z,51.40
2017-12-11T20:19:31.991Z,44.25
2017-12-11T20:22:00.224Z,43.50
2017-12-11T20:24:28.509Z,36.63
2017-12-11T20:26:56.803Z,38.67
2017-12-11T20:29:25.117Z,29.17
2017-12-11T20:31:53.416Z,32.58
2017-12-11T20:34:21.673Z,41.55
2017-12-11T20:36:54.183Z,69.75
2017-12-11T20:39:23.095Z,34.10
2017-12-11T20:41:56.248Z,34.90
2017-12-11T20:44:24.608Z,34.40
2017-12-11T20:46:52.805Z,35.22
2017-12-11T20:49:20.934Z,33.55
2017-12-11T20:51:49.099Z,30.85
2017-12-11T20:54:17.236Z,39.35
2017-12-11T20:56:45.396Z,36.97
2017-12-11T20:59:13.535Z,39.22
2017-12-11T21:01:41.724Z,41.08
2017-12-11T21:04:09.860Z,35.35
2017-12-11T21:06:38.017Z,38.22
2017-12-11T21:09:06.173Z,41.75
2017-12-11T21:11:34.360Z,36.05
2017-12-11T21:14:02.498Z,35.28
2017-12-11T21:16:30.671Z,33.08
2017-12-11T21:18:58.858Z,39.28
2017-12-11T21:21:27.750Z,39.17
2017-12-11T21:23:55.899Z,39.95
2017-12-11T21:26:24.039Z,38.67
2017-12-11T21:28:52.213Z,36.60
2017-12-11T21:31:21.177Z,38.85
2017-12-11T21:33:49.391Z,33.13
2017-12-11T21:36:17.581Z,38.33
2017-12-11T21:38:45.762Z,38.90
2017-12-11T21:41:13.958Z,39.50
2017-12-11T21:43:42.121Z,36.05
2017-12-11T21:46:10.253Z,35.75
2017-12-11T21:48:39.174Z,34.05
2017-12-11T21:51:07.311Z,37.58
2017-12-11T21:53:36.261Z,33.83
2017-12-11T21:56:04.427Z,38.83
2017-12-11T21:58:32.572Z,42.67
2017-12-11T22:01:00.705Z,46.75
2017-12-11T22:03:28.895Z,41.05
2017-12-11T22:05:57.030Z,41.47
2017-12-11T22:08:25.181Z,45.38
2017-12-11T22:10:53.322Z,41.28
2017-12-11T22:13:21.490Z,41.03
2017-12-11T22:15:50.436Z,47.62
2017-12-11T22:18:18.609Z,43.67
2017-12-11T22:20:46.767Z,38.50
2017-12-11T22:23:14.976Z,38.83
2017-12-11T22:25:43.123Z,36.25
2017-12-11T22:28:11.330Z,38.03
2017-12-11T22:30:39.459Z,37.55
2017-12-11T22:33:07.621Z,41.53
2017-12-11T22:35:35.761Z,41.67
2017-12-11T22:38:03.930Z,42.75
2017-12-11T22:40:32.092Z,43.33
2017-12-11T22:43:00.290Z,44.05
2017-12-11T22:45:28.459Z,47.83
2017-12-11T22:47:56.602Z,47.17
2017-12-11T22:50:24.757Z,39.72
2017-12-11T22:52:52.889Z,48.90
2017-12-11T22:55:21.092Z,41.15
2017-12-11T22:57:49.217Z,44.47
2017-12-11T23:00:29.033Z,52.92
2017-12-11T23:02:57.179Z,46.90
2017-12-11T23:05:25.346Z,50.63
2017-12-11T23:07:53.469Z,41.25
2017-12-11T23:10:21.630Z,56.08
2017-12-11T23:12:49.753Z,45.75
2017-12-11T23:15:17.904Z,46.88
2017-12-11T23:17:46.040Z,46.08
2017-12-11T23:20:14.201Z,49.53
2017-12-11T23:22:42.330Z,44.28
2017-12-11T23:25:10.488Z,49.78
2017-12-11T23:27:38.641Z,47.58
2017-12-11T23:30:06.797Z,44.08
2017-12-11T23:32:34.925Z,46.22
2017-12-11T23:35:03.088Z,50.42
2017-12-11T23:37:31.217Z,44.83
2017-12-11T23:39:59.371Z,48.10
2017-12-11T23:42:28.296Z,55.28
2017-12-11T23:44:56.457Z,51.65
2017-12-11T23:47:24.584Z,44.50
2017-12-11T23:49:52.741Z,51.15
2017-12-11T23:52:20.864Z,46.67
2017-12-11T23:54:49.019Z,41.90
2017-12-11T23:57:17.937Z,50.63
2017-12-11T23:59:46.094Z,46.70
